createdAt,value
2024-02-27T00:00:11.976Z,100614.09
2024-02-27T00:02:39.132Z,100615.13
2024-02-27T00:05:06.007Z,100612.03
2024-02-27T00:07:32.443Z,100617.25
2024-02-27T00:09:59.821Z,100615.19
2024-02-27T00:12:27.164Z,100615.53
2024-02-27T00:14:54.532Z,100615.38
2024-02-27T00:17:21.960Z,100616.63
2024-02-27T00:19:48.577Z,100618.81
2024-02-27T00:22:16.290Z,100621.50
2024-02-27T00:24:42.795Z,100620.56
2024-02-27T00:27:09.338Z,100621.44
2024-02-27T00:29:35.886Z,100625.88
2024-02-27T00:32:02.347Z,100624.06
2024-02-27T00:34:29.249Z,100634.63
2024-02-27T00:36:55.766Z,100640.34
2024-02-27T00:39:23.035Z,100630.88
2024-02-27T00:41:50.835Z,100634.28
2024-02-27T00:44:17.303Z,100634.16
2024-02-27T00:46:44.552Z,100637.88
2024-02-27T00:49:11.216Z,100639.88
2024-02-27T00:51:37.924Z,100634.38
2024-02-27T00:54:04.428Z,100635.13
2024-02-27T00:56:30.924Z,100639.41
2024-02-27T00:58:57.385Z,100636.41
2024-02-27T01:01:23.920Z,100630.22
2024-02-27T01:03:50.637Z,100631.47
2024-02-27T01:06:17.384Z,100627.66
2024-02-27T01:08:43.877Z,100633.94
2024-02-27T01:11:10.420Z,100640.22
2024-02-27T01:13:37.022Z,100649.81
2024-02-27T01:16:04.371Z,100654.78
2024-02-27T01:18:31.024Z,100654.28
2024-02-27T01:20:57.625Z,100654.25
2024-02-27T01:23:24.123Z,100647.09
2024-02-27T01:25:50.560Z,100644.91
2024-02-27T01:28:17.008Z,100656.41
2024-02-27T01:30:43.563Z,100657.19
2024-02-27T01:33:10.263Z,100653.75
2024-02-27T01:35:36.784Z,100659.09
2024-02-27T01:38:03.682Z,100659.91
2024-02-27T01:40:30.125Z,100668.22
2024-02-27T01:42:56.567Z,100673.25
2024-02-27T01:45:23.625Z,100681.94
2024-02-27T01:47:51.285Z,100682.47
2024-02-27T01:50:18.553Z,100691.84
2024-02-27T01:52:46.656Z,100697.13
2024-02-27T01:55:13.861Z,100699.38
2024-02-27T01:57:40.866Z,100696.03
2024-02-27T02:00:10.681Z,100702.44
2024-02-27T02:02:38.805Z,100701.19
2024-02-27T02:05:08.620Z,100700.78
2024-02-27T02:07:36.472Z,100703.16
2024-02-27T02:10:03.014Z,100711.22
2024-02-27T02:12:29.497Z,100713.69
2024-02-27T02:14:56.271Z,100711.06
2024-02-27T02:17:22.716Z,100711.63
2024-02-27T02:19:49.276Z,100708.06
2024-02-27T02:22:15.697Z,100707.66
2024-02-27T02:24:42.268Z,100718.97
2024-02-27T02:27:10.255Z,100717.22
2024-02-27T02:29:36.689Z,100721.03
2024-02-27T02:32:04.364Z,100720.31
2024-02-27T02:34:30.851Z,100723.81
2024-02-27T02:36:57.301Z,100718.78
2024-02-27T02:39:23.857Z,100727.16
2024-02-27T02:41:50.290Z,100724.13
2024-02-27T02:44:16.749Z,100721.53
2024-02-27T02:46:44.126Z,100722.81
2024-02-27T02:49:10.863Z,100732.09
2024-02-27T02:51:37.563Z,100736.69
2024-02-27T02:54:04.114Z,100738.31
2024-02-27T02:56:30.614Z,100744.03
2024-02-27T02:58:57.015Z,100747.28
2024-02-27T03:01:23.487Z,100748.09
2024-02-27T03:03:50.010Z,100743.91
2024-02-27T03:06:17.190Z,100746.38
2024-02-27T03:08:43.671Z,100744.75
2024-02-27T03:11:10.117Z,100748.44
2024-02-27T03:13:36.642Z,100749.31
2024-02-27T03:16:03.224Z,100750.84
2024-02-27T03:18:29.889Z,100747.88
2024-02-27T03:20:56.497Z,100748.50
2024-02-27T03:23:22.968Z,100751.81
2024-02-27T03:25:49.460Z,100749.59
2024-02-27T03:28:15.869Z,100749.09
2024-02-27T03:30:42.485Z,100749.88
2024-02-27T03:33:09.109Z,100752.69
2024-02-27T03:35:37.297Z,100754.66
2024-02-27T03:38:04.606Z,100745.47
2024-02-27T03:40:31.117Z,100742.13
2024-02-27T03:42:57.598Z,100740.97
2024-02-27T03:45:24.328Z,100750.50
2024-02-27T03:47:50.942Z,100749.75
2024-02-27T03:50:17.353Z,100749.75
2024-02-27T03:52:44.104Z,100751.28
2024-02-27T03:55:10.688Z,100757.75
2024-02-27T03:57:37.171Z,100756.94
2024-02-27T04:00:05.149Z,100761.78
2024-02-27T04:02:31.600Z,100771.44
2024-02-27T04:04:58.118Z,100769.75
2024-02-27T04:07:24.640Z,100777.81
2024-02-27T04:09:51.080Z,100772.69
2024-02-27T04:12:17.535Z,100769.69
2024-02-27T04:14:44.397Z,100769.81
2024-02-27T04:17:10.834Z,100767.72
2024-02-27T04:19:37.400Z,100769.66
2024-02-27T04:22:03.946Z,100784.19
2024-02-27T04:24:30.495Z,100782.38
2024-02-27T04:26:57.245Z,100781.44
2024-02-27T04:29:23.809Z,100778.00
2024-02-27T04:31:50.212Z,100778.16
2024-02-27T04:34:16.785Z,100782.63
2024-02-27T04:36:48.147Z,100778.53
2024-02-27T04:39:15.406Z,100795.78
2024-02-27T04:41:41.964Z,100794.47
2024-02-27T04:44:11.773Z,100795.06
2024-02-27T04:46:38.193Z,100810.72
2024-02-27T04:49:05.200Z,100811.31
2024-02-27T04:51:31.757Z,100817.81
2024-02-27T04:53:58.598Z,100819.44
2024-02-27T04:56:25.085Z,100814.25
2024-02-27T04:58:51.519Z,100805.19
2024-02-27T05:01:18.057Z,100811.78
2024-02-27T05:03:44.744Z,100816.00
2024-02-27T05:06:11.323Z,100816.63
2024-02-27T05:08:37.814Z,100816.44
2024-02-27T05:11:04.420Z,100820.41
2024-02-27T05:13:30.850Z,100829.63
2024-02-27T05:15:57.275Z,100825.06
2024-02-27T05:18:23.783Z,100827.31
2024-02-27T05:20:50.309Z,100828.06
2024-02-27T05:23:16.865Z,100835.59
2024-02-27T05:25:43.314Z,100844.91
2024-02-27T05:28:10.357Z,100843.75
2024-02-27T05:30:36.827Z,100851.59
2024-02-27T05:33:04.722Z,100848.94
2024-02-27T05:35:31.427Z,100851.72
2024-02-27T05:37:57.913Z,100855.25
2024-02-27T05:40:24.357Z,100858.97
2024-02-27T05:42:51.036Z,100851.69
2024-02-27T05:45:17.507Z,100852.38
2024-02-27T05:47:44.623Z,100865.31
2024-02-27T05:50:11.353Z,100866.56
2024-02-27T05:52:38.541Z,100874.72
2024-02-27T05:55:05.158Z,100870.34
2024-02-27T05:57:31.650Z,100875.00
2024-02-27T05:59:58.114Z,100875.31
2024-02-27T06:02:24.559Z,100872.72
2024-02-27T06:04:51.069Z,100873.31
2024-02-27T06:07:17.801Z,100883.78
2024-02-27T06:09:44.384Z,100886.66
2024-02-27T06:12:11.186Z,100891.94
2024-02-27T06:14:37.703Z,100896.59
2024-02-27T06:17:04.416Z,100898.53
2024-02-27T06:19:31.973Z,100903.53
2024-02-27T06:22:20.224Z,100912.16
2024-02-27T06:24:46.861Z,100911.81
2024-02-27T06:27:13.703Z,100927.78
2024-02-27T06:29:40.150Z,100925.69
2024-02-27T06:32:12.016Z,100929.63
2024-02-27T06:34:39.112Z,100931.25
2024-02-27T06:37:05.748Z,100946.16
2024-02-27T06:39:32.244Z,100950.28
2024-02-27T06:41:59.094Z,100950.22
2024-02-27T06:44:26.112Z,100958.34
2024-02-27T06:46:52.556Z,100959.38
2024-02-27T06:49:22.954Z,100965.47
2024-02-27T06:51:50.290Z,100964.44
2024-02-27T06:54:16.822Z,100965.22
2024-02-27T06:56:43.342Z,100964.22
2024-02-27T06:59:10.404Z,100970.00
2024-02-27T07:01:36.951Z,100966.34
2024-02-27T07:04:03.509Z,100972.38
2024-02-27T07:06:30.052Z,100973.28
2024-02-27T07:08:56.636Z,100980.81
2024-02-27T07:11:23.210Z,100976.00
2024-02-27T07:13:49.663Z,100985.38
2024-02-27T07:16:16.097Z,100991.97
2024-02-27T07:18:42.740Z,100994.09
2024-02-27T07:21:09.248Z,100994.13
2024-02-27T07:23:35.763Z,100996.16
2024-02-27T07:26:02.172Z,100986.50
2024-02-27T07:28:32.960Z,100996.91
2024-02-27T07:31:00.236Z,100987.94
2024-02-27T07:33:26.885Z,100992.00
2024-02-27T07:35:53.496Z,101000.34
2024-02-27T07:38:19.958Z,101003.34
2024-02-27T07:40:46.401Z,101006.25
2024-02-27T07:43:12.851Z,100998.78
2024-02-27T07:45:39.370Z,100996.09
2024-02-27T07:48:06.159Z,101002.97
2024-02-27T07:50:34.098Z,101004.72
2024-02-27T07:53:00.776Z,101008.91
2024-02-27T07:55:27.416Z,101006.78
2024-02-27T07:57:53.902Z,101006.50
2024-02-27T08:00:20.680Z,101012.84
2024-02-27T08:02:47.534Z,101020.00
2024-02-27T08:05:13.978Z,101020.63
2024-02-27T08:07:40.451Z,101022.00
2024-02-27T08:10:07.465Z,101026.78
2024-02-27T08:12:34.356Z,101027.41
2024-02-27T08:15:00.993Z,101032.53
2024-02-27T08:17:27.614Z,101035.56
2024-02-27T08:19:54.198Z,101035.38
2024-02-27T08:22:20.659Z,101037.47
2024-02-27T08:24:47.288Z,101047.41
2024-02-27T08:27:13.931Z,101055.00
2024-02-27T08:29:40.367Z,101066.44
2024-02-27T08:32:06.892Z,101065.91
2024-02-27T08:34:33.997Z,101076.16
2024-02-27T08:37:00.624Z,101074.13
2024-02-27T08:39:28.115Z,101071.88
2024-02-27T08:41:54.575Z,101078.28
2024-02-27T08:44:21.016Z,101085.88
2024-02-27T08:46:47.487Z,101083.41
2024-02-27T08:49:15.104Z,101078.53
2024-02-27T08:51:41.956Z,101083.00
2024-02-27T08:54:08.557Z,101082.41
2024-02-27T08:56:35.849Z,101091.41
2024-02-27T08:59:02.273Z,101089.25
2024-02-27T09:01:28.759Z,101084.97
2024-02-27T09:03:55.407Z,101080.91
2024-02-27T09:06:22.059Z,101073.06
2024-02-27T09:08:48.613Z,101062.31
2024-02-27T09:11:15.134Z,101072.59
2024-02-27T09:13:41.616Z,101071.69
2024-02-27T09:16:08.184Z,101067.53
2024-02-27T09:18:35.781Z,101055.50
2024-02-27T09:21:02.617Z,101050.72
2024-02-27T09:23:29.110Z,101055.16
2024-02-27T09:25:55.611Z,101057.03
2024-02-27T09:28:22.035Z,101057.19
2024-02-27T09:30:48.522Z,101059.69
2024-02-27T09:33:15.483Z,101062.16
2024-02-27T09:35:43.986Z,101061.03
2024-02-27T09:38:10.454Z,101067.66
2024-02-27T09:40:37.006Z,101059.38
2024-02-27T09:43:04.039Z,101057.66
2024-02-27T09:45:31.896Z,101055.91
2024-02-27T09:47:59.315Z,101049.09
2024-02-27T09:50:26.974Z,101055.28
2024-02-27T09:52:54.438Z,101050.00
2024-02-27T09:55:21.691Z,101047.13
2024-02-27T09:57:49.341Z,101055.88
2024-02-27T10:00:20.812Z,101049.38
2024-02-27T10:02:50.208Z,101057.72
2024-02-27T10:05:19.100Z,101053.16
2024-02-27T10:07:49.915Z,101054.84
2024-02-27T10:10:17.444Z,101069.03
2024-02-27T10:12:44.518Z,101073.69
2024-02-27T10:15:11.543Z,101066.78
2024-02-27T10:17:39.347Z,101078.56
2024-02-27T10:20:11.628Z,101086.25
2024-02-27T10:22:42.222Z,101092.91
2024-02-27T10:25:16.202Z,101081.28
2024-02-27T10:27:43.679Z,101079.16
2024-02-27T10:30:11.855Z,101079.47
2024-02-27T10:32:42.085Z,101085.22
2024-02-27T10:35:10.017Z,101081.56
2024-02-27T10:37:37.233Z,101078.03
2024-02-27T10:40:07.606Z,101078.16
2024-02-27T10:42:34.263Z,101077.28
2024-02-27T10:45:01.370Z,101086.25
2024-02-27T10:47:28.432Z,101095.47
2024-02-27T10:49:55.348Z,101101.16
2024-02-27T10:52:27.477Z,101099.91
2024-02-27T10:54:54.617Z,101101.44
2024-02-27T10:57:21.196Z,101092.94
2024-02-27T10:59:48.073Z,101093.59
2024-02-27T11:02:20.992Z,101098.88
2024-02-27T11:04:48.572Z,101094.91
2024-02-27T11:07:19.052Z,101092.16
2024-02-27T11:09:46.464Z,101091.16
2024-02-27T11:12:17.889Z,101091.78
2024-02-27T11:14:50.303Z,101083.31
2024-02-27T11:17:21.581Z,101088.81
2024-02-27T11:19:50.124Z,101078.63
2024-02-27T11:22:23.882Z,101082.50
2024-02-27T11:24:50.536Z,101076.59
2024-02-27T11:27:19.794Z,101065.03
2024-02-27T11:29:46.756Z,101059.41
2024-02-27T11:32:13.895Z,101051.91
2024-02-27T11:34:43.955Z,101055.13
2024-02-27T11:37:14.519Z,101061.72
2024-02-27T11:39:41.483Z,101051.06
2024-02-27T11:42:37.811Z,101044.59
2024-02-27T11:45:05.613Z,101040.56
2024-02-27T11:47:37.975Z,101044.13
2024-02-27T11:50:07.343Z,101036.66
2024-02-27T11:52:36.836Z,101033.78
2024-02-27T11:55:07.465Z,101038.53
2024-02-27T11:57:36.126Z,101031.91
2024-02-27T12:00:10.038Z,101030.75
2024-02-27T12:02:38.138Z,101030.34
2024-02-27T12:05:08.897Z,101035.03
2024-02-27T12:07:35.945Z,101035.19
2024-02-27T12:10:13.064Z,101047.97
2024-02-27T12:12:40.793Z,101044.88
2024-02-27T12:15:08.642Z,101059.16
2024-02-27T12:17:37.292Z,101048.41
2024-02-27T12:20:06.860Z,101045.63
2024-02-27T12:22:37.614Z,101037.47
2024-02-27T12:25:04.826Z,101041.16
2024-02-27T12:27:32.981Z,101035.63
2024-02-27T12:30:01.427Z,101037.25
2024-02-27T12:32:29.183Z,101038.28
2024-02-27T12:34:55.641Z,101030.56
2024-02-27T12:37:22.105Z,101025.78
2024-02-27T12:39:48.870Z,101019.84
2024-02-27T12:42:16.102Z,101025.50
2024-02-27T12:44:46.585Z,101021.16
2024-02-27T12:47:12.996Z,101017.41
2024-02-27T12:49:39.534Z,101008.28
2024-02-27T12:52:16.324Z,101004.03
2024-02-27T12:54:44.017Z,101008.63
2024-02-27T12:57:11.008Z,101009.28
2024-02-27T12:59:39.934Z,101004.31
2024-02-27T13:02:07.632Z,101007.56
2024-02-27T13:04:35.869Z,101009.19
2024-02-27T13:07:02.511Z,101006.84
2024-02-27T13:09:29.937Z,101010.91
2024-02-27T13:12:08.121Z,101010.16
2024-02-27T13:14:34.878Z,101005.59
2024-02-27T13:17:01.494Z,101006.28
2024-02-27T13:19:28.073Z,101008.31
2024-02-27T13:21:56.622Z,101012.34
2024-02-27T13:24:23.288Z,101002.69
2024-02-27T13:26:49.771Z,101006.19
2024-02-27T13:29:16.179Z,101004.41
2024-02-27T13:31:42.769Z,101002.03
2024-02-27T13:34:09.488Z,101001.59
2024-02-27T13:36:36.043Z,100998.41
2024-02-27T13:39:04.760Z,100993.84
2024-02-27T13:41:31.403Z,100988.63
2024-02-27T13:43:57.862Z,100986.06
2024-02-27T13:46:24.306Z,100983.72
2024-02-27T13:48:50.741Z,100974.34
2024-02-27T13:51:17.887Z,100972.66
2024-02-27T13:53:44.534Z,100966.03
2024-02-27T13:56:10.978Z,100958.28
2024-02-27T13:58:37.980Z,100944.00
2024-02-27T14:01:04.809Z,100930.88
2024-02-27T14:03:33.325Z,100932.63
2024-02-27T14:06:00.372Z,100931.03
2024-02-27T14:08:26.871Z,100917.22
2024-02-27T14:10:55.383Z,100914.78
2024-02-27T14:13:22.911Z,100916.28
2024-02-27T14:15:49.777Z,100900.03
2024-02-27T14:18:16.346Z,100905.84
2024-02-27T14:20:42.853Z,100902.41
2024-02-27T14:23:09.302Z,100906.53
2024-02-27T14:25:38.033Z,100901.16
2024-02-27T14:28:05.031Z,100901.66
2024-02-27T14:30:31.493Z,100896.25
2024-02-27T14:32:57.992Z,100897.34
2024-02-27T14:35:24.458Z,100902.16
2024-02-27T14:37:50.910Z,100912.59
2024-02-27T14:40:17.839Z,100908.81
2024-02-27T14:42:45.869Z,100897.25
2024-02-27T14:45:12.403Z,100891.09
2024-02-27T14:47:38.857Z,100891.53
2024-02-27T14:50:05.707Z,100915.66
2024-02-27T14:52:32.181Z,100909.72
2024-02-27T14:55:03.359Z,100907.91
2024-02-27T14:57:30.542Z,100904.94
2024-02-27T14:59:57.009Z,100914.34
2024-02-27T15:02:23.453Z,100925.81
2024-02-27T15:04:50.757Z,100920.19
2024-02-27T15:07:17.371Z,100925.09
2024-02-27T15:09:43.918Z,100917.19
2024-02-27T15:12:10.498Z,100914.53
2024-02-27T15:14:37.019Z,100918.28
2024-02-27T15:17:03.493Z,100920.97
2024-02-27T15:19:30.196Z,100930.53
2024-02-27T15:21:56.943Z,100935.16
2024-02-27T15:24:23.431Z,100938.66
2024-02-27T15:26:50.137Z,100940.41
2024-02-27T15:29:17.669Z,100943.59
2024-02-27T15:31:44.549Z,100943.53
2024-02-27T15:34:11.191Z,100941.94
2024-02-27T15:36:37.781Z,100934.91
2024-02-27T15:39:07.477Z,100929.59
2024-02-27T15:41:33.984Z,100930.44
2024-02-27T15:44:08.028Z,100928.59
2024-02-27T15:46:38.757Z,100939.94
2024-02-27T15:49:05.854Z,100944.38
2024-02-27T15:51:32.494Z,100945.53
2024-02-27T15:53:58.970Z,100941.41
2024-02-27T15:56:25.390Z,100949.78
2024-02-27T15:58:51.851Z,100946.97
2024-02-27T16:01:18.542Z,100942.47
2024-02-27T16:04:07.086Z,100936.97
2024-02-27T16:06:40.604Z,100933.09
2024-02-27T16:09:07.169Z,100926.75
2024-02-27T16:11:33.645Z,100935.41
2024-02-27T16:14:00.110Z,100940.22
2024-02-27T16:16:26.594Z,100944.50
2024-02-27T16:18:54.545Z,100955.63
2024-02-27T16:21:21.509Z,100960.22
2024-02-27T16:23:47.982Z,100968.13
2024-02-27T16:26:14.447Z,100968.09
2024-02-27T16:28:40.988Z,100978.03
2024-02-27T16:31:07.841Z,100970.06
2024-02-27T16:33:34.461Z,100973.53
2024-02-27T16:36:00.956Z,100973.69
2024-02-27T16:38:27.393Z,100972.53
2024-02-27T16:40:53.806Z,100979.22
2024-02-27T16:43:20.776Z,100987.22
2024-02-27T16:45:48.961Z,100998.56
2024-02-27T16:48:15.635Z,101012.09
2024-02-27T16:50:42.229Z,101006.22
2024-02-27T16:53:08.708Z,101010.34
2024-02-27T16:55:37.088Z,101015.06
2024-02-27T16:58:04.193Z,101016.56
2024-02-27T17:00:30.758Z,101019.06
2024-02-27T17:02:57.198Z,101017.94
2024-02-27T17:05:23.624Z,101017.69
2024-02-27T17:07:50.040Z,101016.25
2024-02-27T17:10:16.538Z,101011.97
2024-02-27T17:12:43.425Z,101016.88
2024-02-27T17:15:10.704Z,101024.53
2024-02-27T17:17:37.320Z,101030.31
2024-02-27T17:20:04.030Z,101021.78
2024-02-27T17:22:30.505Z,101027.56
2024-02-27T17:24:56.974Z,101034.72
2024-02-27T17:27:23.451Z,101039.00
2024-02-27T17:29:51.451Z,101039.84
2024-02-27T17:32:17.862Z,101035.84
2024-02-27T17:34:44.444Z,101044.34
2024-02-27T17:37:11.526Z,101048.06
2024-02-27T17:39:38.024Z,101044.47
2024-02-27T17:42:04.898Z,101056.50
2024-02-27T17:44:31.461Z,101064.50
2024-02-27T17:46:57.863Z,101069.19
2024-02-27T17:49:24.495Z,101073.31
2024-02-27T17:51:51.093Z,101070.66
2024-02-27T17:54:17.538Z,101073.03
2024-02-27T17:56:44.029Z,101077.09
2024-02-27T17:59:11.295Z,101087.03
2024-02-27T18:01:37.951Z,101088.16
2024-02-27T18:04:06.453Z,101095.78
2024-02-27T18:06:32.998Z,101097.75
2024-02-27T18:09:00.296Z,101105.75
2024-02-27T18:11:26.777Z,101109.84
2024-02-27T18:13:53.278Z,101112.44
2024-02-27T18:16:19.858Z,101115.28
2024-02-27T18:18:46.320Z,101123.13
2024-02-27T18:21:12.776Z,101119.03
2024-02-27T18:23:39.210Z,101118.47
2024-02-27T18:26:05.671Z,101130.31
2024-02-27T18:28:32.083Z,101131.34
2024-02-27T18:30:58.992Z,101127.47
2024-02-27T18:33:25.780Z,101139.72
2024-02-27T18:35:56.166Z,101143.06
2024-02-27T18:38:24.513Z,101141.28
2024-02-27T18:40:51.381Z,101141.72
2024-02-27T18:43:17.860Z,101148.25
2024-02-27T18:45:46.858Z,101157.53
2024-02-27T18:48:13.576Z,101162.44
2024-02-27T18:50:40.985Z,101162.09
2024-02-27T18:53:07.757Z,101163.81
2024-02-27T18:55:34.206Z,101157.81
2024-02-27T18:58:00.751Z,101162.03
2024-02-27T19:00:27.401Z,101167.78
2024-02-27T19:02:54.061Z,101162.41
2024-02-27T19:05:20.517Z,101166.97
2024-02-27T19:07:46.987Z,101166.72
2024-02-27T19:10:13.721Z,101167.53
2024-02-27T19:12:40.785Z,101159.38
2024-02-27T19:15:08.101Z,101159.31
2024-02-27T19:17:34.561Z,101159.22
2024-02-27T19:20:01.050Z,101153.72
2024-02-27T19:22:27.853Z,101155.13
2024-02-27T19:24:54.257Z,101149.97
2024-02-27T19:27:20.697Z,101148.59
2024-02-27T19:29:47.120Z,101149.25
2024-02-27T19:32:13.547Z,101149.25
2024-02-27T19:34:40.627Z,101148.16
2024-02-27T19:37:07.022Z,101154.09
2024-02-27T19:39:33.530Z,101151.09
2024-02-27T19:41:59.980Z,101154.81
2024-02-27T19:44:26.419Z,101160.59
2024-02-27T19:46:52.872Z,101167.66
2024-02-27T19:49:20.341Z,101174.94
2024-02-27T19:51:46.968Z,101176.97
2024-02-27T19:54:13.485Z,101188.84
2024-02-27T19:56:41.158Z,101190.09
2024-02-27T19:59:07.772Z,101194.19
2024-02-27T20:01:34.240Z,101194.34
2024-02-27T20:04:00.728Z,101196.84
2024-02-27T20:06:27.530Z,101186.69
2024-02-27T20:08:53.979Z,101196.44
2024-02-27T20:11:20.459Z,101193.91
2024-02-27T20:13:47.319Z,101202.53
2024-02-27T20:16:14.027Z,101200.06
2024-02-27T20:18:41.453Z,101199.16
2024-02-27T20:21:08.307Z,101196.28
2024-02-27T20:23:34.877Z,101195.47
2024-02-27T20:26:05.816Z,101191.31
2024-02-27T20:28:33.165Z,101192.91
2024-02-27T20:30:59.686Z,101190.75
2024-02-27T20:33:27.803Z,101187.78
2024-02-27T20:35:54.624Z,101193.38
2024-02-27T20:38:21.905Z,101189.09
2024-02-27T20:40:48.416Z,101192.00
2024-02-27T20:43:14.929Z,101191.84
2024-02-27T20:45:42.059Z,101191.59
2024-02-27T20:48:10.228Z,101201.97
2024-02-27T20:50:37.434Z,101200.84
2024-02-27T20:53:04.156Z,101205.38
2024-02-27T20:55:30.811Z,101210.94
2024-02-27T20:57:58.318Z,101211.09
2024-02-27T21:00:24.986Z,101213.41
2024-02-27T21:02:52.047Z,101211.34
2024-02-27T21:05:18.542Z,101216.53
2024-02-27T21:07:48.078Z,101220.69
2024-02-27T21:10:14.706Z,101227.59
2024-02-27T21:12:41.300Z,101220.28
2024-02-27T21:15:08.921Z,101221.81
2024-02-27T21:17:35.484Z,101206.53
2024-02-27T21:20:02.701Z,101210.75
2024-02-27T21:22:29.125Z,101216.94
2024-02-27T21:24:55.634Z,101206.03
2024-02-27T21:27:22.160Z,101210.34
2024-02-27T21:29:48.574Z,101214.13
2024-02-27T21:32:15.822Z,101214.59
2024-02-27T21:34:42.258Z,101216.28
2024-02-27T21:37:08.695Z,101211.31
2024-02-27T21:39:35.141Z,101217.78
2024-02-27T21:42:02.387Z,101209.94
2024-02-27T21:44:28.857Z,101221.41
2024-02-27T21:46:55.290Z,101224.75
2024-02-27T21:49:21.735Z,101221.69
2024-02-27T21:51:56.831Z,101221.69
2024-02-27T21:54:29.294Z,101215.25
2024-02-27T21:56:55.738Z,101220.47
2024-02-27T21:59:22.149Z,101229.38
2024-02-27T22:01:49.852Z,101251.97
2024-02-27T22:04:16.431Z,101253.13
2024-02-27T22:06:42.900Z,101251.03
2024-02-27T22:09:11.229Z,101254.53
2024-02-27T22:11:38.082Z,101248.69
2024-02-27T22:14:04.736Z,101258.66
2024-02-27T22:16:31.308Z,101250.81
2024-02-27T22:18:57.864Z,101252.78
2024-02-27T22:21:24.425Z,101245.69
2024-02-27T22:23:50.892Z,101231.69
2024-02-27T22:26:17.348Z,101243.56
2024-02-27T22:28:43.778Z,101242.88
2024-02-27T22:31:10.206Z,101235.56
2024-02-27T22:33:36.675Z,101234.31
2024-02-27T22:36:03.234Z,101222.03
2024-02-27T22:38:29.666Z,101216.88
2024-02-27T22:40:56.333Z,101226.00
2024-02-27T22:43:22.842Z,101232.63
2024-02-27T22:45:49.878Z,101231.50
2024-02-27T22:48:16.554Z,101237.16
2024-02-27T22:50:44.164Z,101234.81
2024-02-27T22:53:10.802Z,101231.59
2024-02-27T22:55:37.962Z,101226.13
2024-02-27T22:58:05.431Z,101238.13
2024-02-27T23:00:32.116Z,101233.59
2024-02-27T23:02:59.187Z,101235.66
2024-02-27T23:05:25.719Z,101231.72
2024-02-27T23:07:53.668Z,101238.31
2024-02-27T23:10:20.880Z,101240.31
2024-02-27T23:12:47.469Z,101249.75
2024-02-27T23:15:14.833Z,101241.81
2024-02-27T23:17:41.341Z,101238.00
2024-02-27T23:20:09.787Z,101243.38
2024-02-27T23:22:36.241Z,101248.50
2024-02-27T23:25:03.120Z,101243.38
2024-02-27T23:27:29.578Z,101253.66
2024-02-27T23:29:56.033Z,101252.22
2024-02-27T23:32:22.438Z,101248.25
2024-02-27T23:34:48.853Z,101251.59
2024-02-27T23:37:15.253Z,101255.16
2024-02-27T23:39:41.869Z,101246.81
2024-02-27T23:42:08.325Z,101236.16
2024-02-27T23:44:34.779Z,101233.66
2024-02-27T23:47:01.278Z,101233.38
2024-02-27T23:49:27.691Z,101230.59
2024-02-27T23:51:54.125Z,101230.09
2024-02-27T23:54:20.633Z,101240.66
2024-02-27T23:56:48.807Z,101232.22
2024-02-27T23:59:18.471Z,101240.94
